Time;durP1;ratioP1;P1;durP2;ratioP2;P2;SDS_P1;SDS_P2;PMS_P1;PMS_P2;Temp;Humidity;BMP_temperature;BMP_pressure;BME280_temperature;BME280_humidity;BME280_pressure;Samples;Min_cycle;Max_cycle;Signal;HPM_P1;HPM_P2
2022/09/05 00:01:53;;;;;;;6.78;3.72;;;19.40;96.30;;;;;;5113093;27;20047;-83
2022/09/05 00:04:56;;;;;;;6.05;3.17;;;19.30;96.30;;;;;;5117513;27;20502;-83
2022/09/05 00:07:50;;;;;;;5.22;3.55;;;19.30;96.70;;;;;;5092620;27;20099;-83
2022/09/05 00:10:32;;;;;;;4.65;3.33;;;19.20;97.00;;;;;;5099439;27;20039;-83
2022/09/05 00:13:03;;;;;;;4.80;3.58;;;19.20;97.10;;;;;;5109706;27;20404;-83
2022/09/05 00:15:46;;;;;;;4.65;3.42;;;19.10;97.40;;;;;;5098406;27;20290;-86
2022/09/05 00:18:39;;;;;;;5.18;3.58;;;19.00;97.70;;;;;;5108451;27;20053;-83
2022/09/05 00:21:36;;;;;;;6.20;3.60;;;19.00;97.90;;;;;;5098219;27;20489;-83
2022/09/05 00:24:02;;;;;;;5.13;3.65;;;18.90;98.20;;;;;;5102414;27;20544;-83
2022/09/05 00:26:50;;;;;;;7.50;3.50;;;18.90;98.50;;;;;;5094603;27;20043;-83
2022/09/05 00:29:44;;;;;;;3.65;3.25;;;18.90;98.50;;;;;;5103777;27;20042;-83
2022/09/05 00:32:16;;;;;;;5.20;3.60;;;18.90;98.70;;;;;;5116105;27;20137;-83
2022/09/05 00:34:56;;;;;;;4.00;3.60;;;18.80;98.70;;;;;;5100336;27;20098;-82
2022/09/05 00:37:47;;;;;;;4.65;3.78;;;18.80;98.60;;;;;;5096498;27;20099;-83
2022/09/05 00:40:26;;;;;;;4.28;3.60;;;18.80;98.70;;;;;;5103956;27;20079;-84
2022/09/05 00:43:02;;;;;;;7.07;3.78;;;18.80;98.90;;;;;;5094357;27;20049;-82
2022/09/05 00:45:42;;;;;;;4.72;3.70;;;18.70;98.80;;;;;;5091203;27;20055;-82
2022/09/05 00:48:35;;;;;;;7.45;4.18;;;18.70;98.80;;;;;;5102794;27;20039;-82
2022/09/05 00:51:34;;;;;;;5.90;3.47;;;18.70;98.80;;;;;;5097913;27;20042;-82
2022/09/05 00:54:32;;;;;;;6.57;3.90;;;18.70;98.90;;;;;;5121365;27;20566;-82
2022/09/05 00:57:14;;;;;;;4.63;3.90;;;18.70;98.90;;;;;;5095904;27;20038;-82
2022/09/05 00:59:58;;;;;;;5.38;4.00;;;18.70;99.00;;;;;;5098880;27;20046;-82
2022/09/05 01:02:47;;;;;;;5.88;3.80;;;18.70;99.10;;;;;;5095060;27;20088;-85
2022/09/05 01:05:34;;;;;;;5.18;3.35;;;18.70;99.10;;;;;;5086925;27;20515;-85
2022/09/05 01:08:29;;;;;;;5.53;4.10;;;18.70;99.00;;;;;;5101317;27;20043;-82
2022/09/05 01:11:31;;;;;;;5.25;4.00;;;18.70;98.90;;;;;;5107955;27;20047;-82
2022/09/05 01:14:25;;;;;;;5.00;4.15;;;18.70;99.00;;;;;;5094938;27;20043;-82
2022/09/05 01:17:11;;;;;;;7.93;4.10;;;18.70;99.10;;;;;;5093062;27;20050;-82
2022/09/05 01:20:09;;;;;;;5.82;3.95;;;18.70;99.20;;;;;;5117402;27;20114;-82
2022/09/05 01:23:08;;;;;;;7.35;4.60;;;18.60;99.20;;;;;;5103828;27;20047;-82
2022/09/05 01:25:56;;;;;;;5.80;4.55;;;18.50;99.50;;;;;;5117423;27;21438;-82
2022/09/05 01:28:45;;;;;;;5.88;4.18;;;18.50;99.80;;;;;;5092446;27;20122;-82
2022/09/05 01:31:32;;;;;;;4.82;4.30;;;18.40;99.80;;;;;;5108149;27;20627;-82
2022/09/05 01:34:28;;;;;;;5.13;4.28;;;18.40;99.90;;;;;;5094542;27;20059;-82
2022/09/05 01:37:02;;;;;;;5.70;4.63;;;18.30;99.90;;;;;;5087831;27;20076;-82
2022/09/05 01:39:51;;;;;;;6.53;4.40;;;18.30;99.90;;;;;;5103474;27;20050;-82
2022/09/05 01:42:17;;;;;;;7.30;4.90;;;18.30;99.90;;;;;;5101805;27;20050;-82
2022/09/05 01:45:03;;;;;;;6.53;4.68;;;18.20;99.90;;;;;;5102841;27;20044;-82
2022/09/05 01:47:47;;;;;;;5.43;4.85;;;18.20;99.90;;;;;;5113855;27;20505;-82
2022/09/05 01:50:37;;;;;;;7.93;4.70;;;18.20;99.90;;;;;;5108812;27;20061;-82
2022/09/05 01:53:41;;;;;;;5.78;4.65;;;18.10;99.90;;;;;;5114498;27;20104;-82
2022/09/05 01:56:19;;;;;;;7.93;4.70;;;18.10;99.90;;;;;;5108749;27;20759;-82
2022/09/05 01:58:56;;;;;;;9.07;6.20;;;18.10;99.90;;;;;;5099552;27;20301;-82
2022/09/05 02:01:50;;;;;;;5.68;4.82;;;18.00;99.90;;;;;;5103927;27;20039;-86
2022/09/05 02:04:40;;;;;;;5.88;4.63;;;18.00;99.90;;;;;;5108161;27;20047;-85
2022/09/05 02:07:18;;;;;;;6.63;4.80;;;17.90;99.90;;;;;;5101084;27;20099;-85
2022/09/05 02:10:01;;;;;;;7.20;5.60;;;17.80;99.90;;;;;;5113829;27;20055;-85
2022/09/05 02:12:43;;;;;;;5.22;4.72;;;17.80;99.90;;;;;;5128350;27;20039;-85
2022/09/05 02:15:27;;;;;;;6.95;4.85;;;17.70;99.90;;;;;;5110416;27;20537;-85
2022/09/05 02:17:56;;;;;;;5.82;5.00;;;17.70;99.90;;;;;;5110729;27;20045;-85
2022/09/05 02:20:45;;;;;;;6.88;5.10;;;17.60;99.90;;;;;;5106411;27;20055;-85
2022/09/05 02:23:16;;;;;;;6.07;4.72;;;17.60;99.90;;;;;;5112843;27;20051;-85
2022/09/05 02:25:55;;;;;;;5.90;4.80;;;17.60;99.90;;;;;;5105957;27;20077;-85
2022/09/05 02:28:56;;;;;;;7.35;5.10;;;17.60;99.90;;;;;;5111917;27;20046;-82
2022/09/05 02:31:31;;;;;;;7.03;5.00;;;17.60;99.90;;;;;;5111575;27;20565;-82
2022/09/05 02:34:08;;;;;;;6.10;4.88;;;17.60;99.90;;;;;;5106022;27;20042;-82
2022/09/05 02:36:49;;;;;;;6.25;5.20;;;17.60;99.90;;;;;;5123618;27;20058;-82
2022/09/05 02:39:35;;;;;;;6.75;5.93;;;17.60;99.90;;;;;;5148276;27;20158;-82
2022/09/05 02:42:04;;;;;;;5.88;5.15;;;17.60;99.90;;;;;;5116579;27;20054;-82
2022/09/05 02:44:45;;;;;;;8.10;5.32;;;17.50;99.90;;;;;;5099462;27;20035;-82
2022/09/05 02:47:23;;;;;;;6.68;5.75;;;17.50;99.90;;;;;;5117061;27;20051;-82
2022/09/05 02:49:55;;;;;;;6.97;6.00;;;17.50;99.90;;;;;;5124082;27;20495;-82
2022/09/05 02:52:25;;;;;;;7.13;5.40;;;17.50;99.90;;;;;;5109225;27;20062;-83
2022/09/05 02:54:53;;;;;;;6.00;5.40;;;17.40;99.90;;;;;;5095482;27;20084;-81
2022/09/05 02:57:28;;;;;;;7.05;5.50;;;17.40;99.90;;;;;;5095783;27;20045;-81
2022/09/05 03:00:15;;;;;;;8.23;6.00;;;17.40;99.90;;;;;;5105655;27;20038;-81
2022/09/05 03:03:33;;;;;;;8.25;5.93;;;17.30;99.90;;;;;;5116609;27;20050;-82
2022/09/05 03:06:02;;;;;;;8.35;5.50;;;17.30;99.90;;;;;;5084498;27;20524;-82
2022/09/05 03:08:54;;;;;;;7.78;6.13;;;17.30;99.90;;;;;;5116243;27;20086;-81
2022/09/05 03:11:48;;;;;;;6.65;5.95;;;17.20;99.90;;;;;;5123351;27;20054;-81
2022/09/05 03:14:33;;;;;;;6.90;5.75;;;17.20;99.90;;;;;;5121322;27;20046;-81
2022/09/05 03:17:37;;;;;;;7.55;6.43;;;17.10;99.90;;;;;;5101306;27;20046;-81
2022/09/05 03:20:37;;;;;;;7.43;5.53;;;17.00;99.90;;;;;;5061902;27;21500;-86
2022/09/05 03:23:33;;;;;;;7.45;5.95;;;17.00;99.90;;;;;;5118277;27;20062;-81
2022/09/05 03:26:11;;;;;;;6.47;5.85;;;16.90;99.90;;;;;;5096274;27;20054;-86
2022/09/05 03:29:04;;;;;;;8.05;6.97;;;16.90;99.90;;;;;;5118463;27;20118;-86
2022/09/05 03:32:07;;;;;;;6.97;6.28;;;16.80;99.90;;;;;;5107691;27;20062;-87
2022/09/05 03:35:00;;;;;;;8.88;6.97;;;16.80;99.90;;;;;;5100902;27;20501;-85
2022/09/05 03:37:54;;;;;;;7.03;6.30;;;16.90;99.90;;;;;;5106442;27;20043;-86
2022/09/05 03:40:44;;;;;;;7.60;6.60;;;16.90;99.90;;;;;;5112124;27;20687;-85
2022/09/05 03:43:47;;;;;;;7.32;6.38;;;16.90;99.90;;;;;;5106768;27;20088;-85
2022/09/05 03:46:37;;;;;;;7.80;6.70;;;16.90;99.90;;;;;;5095099;27;20106;-85
2022/09/05 03:49:45;;;;;;;6.60;5.88;;;16.90;99.90;;;;;;5098087;27;20053;-86
2022/09/05 03:52:11;;;;;;;8.55;6.53;;;16.90;99.90;;;;;;5093504;27;20054;-81
2022/09/05 03:54:37;;;;;;;10.20;6.55;;;16.80;99.90;;;;;;5110007;27;20038;-81
2022/09/05 03:57:44;;;;;;;7.90;6.60;;;16.80;99.90;;;;;;5100435;27;20122;-81
2022/09/05 04:00:26;;;;;;;7.30;6.53;;;16.80;99.90;;;;;;5099010;27;20058;-81
2022/09/05 04:03:01;;;;;;;7.82;6.68;;;16.80;99.90;;;;;;5102025;27;20043;-81
2022/09/05 04:05:38;;;;;;;11.25;7.45;;;16.90;99.90;;;;;;5097457;27;20049;-80
2022/09/05 04:08:46;;;;;;;8.25;7.50;;;16.80;99.90;;;;;;5100445;27;20085;-80
2022/09/05 04:11:16;;;;;;;7.78;6.97;;;16.80;99.90;;;;;;5098909;27;20027;-81
2022/09/05 04:13:51;;;;;;;7.75;6.72;;;16.70;99.90;;;;;;5105000;27;20053;-81
2022/09/05 04:16:23;;;;;;;7.72;6.90;;;16.70;99.90;;;;;;5102891;27;20027;-80
2022/09/05 04:19:16;;;;;;;8.00;7.00;;;16.60;99.90;;;;;;5099507;27;20041;-81
2022/09/05 04:21:56;;;;;;;8.02;7.30;;;16.70;99.90;;;;;;5108330;27;20043;-81
2022/09/05 04:24:36;;;;;;;8.82;7.22;;;16.60;99.90;;;;;;5117218;27;20046;-81
2022/09/05 04:27:37;;;;;;;7.97;7.18;;;16.70;99.90;;;;;;5095576;27;20493;-81
2022/09/05 04:30:21;;;;;;;7.63;6.15;;;16.60;99.90;;;;;;5117177;27;20031;-80
2022/09/05 04:32:52;;;;;;;7.38;6.55;;;16.50;99.90;;;;;;5101010;27;20039;-80
2022/09/05 04:35:18;;;;;;;8.30;7.50;;;16.50;99.90;;;;;;5096872;27;20050;-81
2022/09/05 04:38:13;;;;;;;10.40;7.18;;;16.50;99.90;;;;;;5100896;27;20058;-81
2022/09/05 04:41:09;;;;;;;9.43;7.32;;;16.50;99.90;;;;;;5024466;28;20084;-81
2022/09/05 04:43:42;;;;;;;7.65;6.95;;;16.50;99.90;;;;;;5107952;27;20083;-86
2022/09/05 04:46:18;;;;;;;10.82;7.53;;;16.50;99.90;;;;;;5117823;27;20047;-85
2022/09/05 04:48:58;;;;;;;8.82;7.95;;;16.50;99.90;;;;;;5100897;27;20039;-85
2022/09/05 04:51:36;;;;;;;8.55;7.68;;;16.50;99.90;;;;;;5104395;27;20043;-86
2022/09/05 04:54:32;;;;;;;9.40;7.82;;;16.50;99.90;;;;;;5106484;27;20130;-86
2022/09/05 04:57:36;;;;;;;7.95;6.97;;;16.50;99.90;;;;;;5112167;27;20059;-85
2022/09/05 05:00:27;;;;;;;8.60;7.70;;;16.40;99.90;;;;;;5081950;27;20096;-86
2022/09/05 05:03:15;;;;;;;11.15;8.02;;;16.40;99.90;;;;;;5097762;27;20059;-86
2022/09/05 05:05:57;;;;;;;8.88;8.07;;;16.40;99.90;;;;;;5109567;27;20051;-86
2022/09/05 05:08:54;;;;;;;9.07;7.88;;;16.40;99.90;;;;;;5102518;27;20038;-87
2022/09/05 05:11:31;;;;;;;10.63;8.30;;;16.40;99.90;;;;;;5102043;27;20074;-86
2022/09/05 05:14:16;;;;;;;8.30;7.50;;;16.40;99.90;;;;;;5109191;27;20046;-86
2022/09/05 05:16:55;;;;;;;8.70;7.82;;;16.40;99.90;;;;;;5097405;27;20201;-86
2022/09/05 05:19:32;;;;;;;9.18;8.30;;;16.30;99.90;;;;;;5118696;27;20051;-86
2022/09/05 05:22:00;;;;;;;8.93;7.80;;;16.30;99.90;;;;;;5119195;27;20042;-85
2022/09/05 05:24:40;;;;;;;9.30;8.20;;;16.30;99.90;;;;;;5099994;27;20141;-86
2022/09/05 05:27:15;;;;;;;8.95;8.05;;;16.30;99.90;;;;;;5104280;27;20110;-86
2022/09/05 05:29:53;;;;;;;8.90;7.25;;;16.40;99.90;;;;;;5111902;27;20051;-81
2022/09/05 05:32:29;;;;;;;8.90;7.63;;;16.40;99.90;;;;;;5108442;27;20042;-81
2022/09/05 05:35:03;;;;;;;8.50;7.43;;;16.40;99.90;;;;;;5109756;27;20053;-79
2022/09/05 05:37:54;;;;;;;8.80;7.72;;;16.40;99.90;;;;;;5088895;27;20085;-80
2022/09/05 05:40:27;;;;;;;8.98;8.07;;;16.40;99.90;;;;;;5127492;27;20047;-80
2022/09/05 05:43:11;;;;;;;8.75;7.95;;;16.40;99.90;;;;;;5113755;27;20043;-80
2022/09/05 05:45:37;;;;;;;8.63;7.82;;;16.40;99.90;;;;;;5084017;27;20404;-80
2022/09/05 05:48:26;;;;;;;8.75;7.95;;;16.40;99.90;;;;;;5095819;27;20096;-80
2022/09/05 05:51:36;;;;;;;8.90;8.10;;;16.50;99.90;;;;;;5083619;27;20050;-80
2022/09/05 05:54:13;;;;;;;10.02;8.45;;;16.60;99.90;;;;;;5109632;27;20083;-80
2022/09/05 05:57:03;;;;;;;9.05;8.15;;;16.60;99.90;;;;;;5109444;27;20043;-80
2022/09/05 06:00:07;;;;;;;9.43;8.27;;;16.70;99.90;;;;;;5118357;27;20148;-80
2022/09/05 06:03:10;;;;;;;8.90;8.10;;;16.70;99.90;;;;;;5094725;27;20043;-80
2022/09/05 06:06:14;;;;;;;8.90;8.05;;;16.80;99.90;;;;;;5094285;27;20130;-87
2022/09/05 06:08:49;;;;;;;9.48;8.48;;;16.80;99.90;;;;;;5103722;27;20046;-87
2022/09/05 06:11:40;;;;;;;9.45;8.55;;;16.90;99.90;;;;;;5097512;27;20442;-87
2022/09/05 06:14:26;;;;;;;;;;;17.00;99.90;;;;;;5097183;27;20038;-88
2022/09/05 06:17:26;;;;;;;9.43;8.13;;;17.00;99.90;;;;;;5122794;27;19923;-88
2022/09/05 06:20:16;;;;;;;9.25;8.27;;;17.10;99.90;;;;;;5096352;27;20051;-81
2022/09/05 06:23:07;;;;;;;11.38;7.85;;;17.10;99.90;;;;;;5109390;27;20061;-80
2022/09/05 06:25:49;;;;;;;8.48;7.68;;;17.30;99.90;;;;;;5111395;27;20110;-81
2022/09/05 06:28:24;;;;;;;8.43;7.63;;;17.30;99.90;;;;;;5097892;27;20051;-87
2022/09/05 06:31:36;;;;;;;9.18;8.38;;;17.40;99.90;;;;;;5112080;27;20099;-87
2022/09/05 06:34:27;;;;;;;8.57;7.70;;;17.50;99.90;;;;;;5113253;27;20140;-80
2022/09/05 06:37:04;;;;;;;7.95;7.15;;;17.60;99.90;;;;;;5114871;27;20118;-80
2022/09/05 06:39:45;;;;;;;8.48;7.75;;;17.70;99.90;;;;;;5118983;27;20045;-81
2022/09/05 06:43:01;;;;;;;8.18;7.10;;;17.70;99.90;;;;;;5094132;27;20101;-80
2022/09/05 06:45:42;;;;;;;8.23;7.35;;;17.80;99.90;;;;;;5097772;28;20039;-80
2022/09/05 06:48:14;;;;;;;8.50;7.70;;;17.90;99.90;;;;;;5103517;27;20044;-87
2022/09/05 06:51:20;;;;;;;8.45;7.60;;;18.00;99.90;;;;;;5103356;27;20036;-80
2022/09/05 06:54:08;;;;;;;9.27;7.80;;;18.10;99.90;;;;;;5115885;27;20047;-80
2022/09/05 06:56:58;;;;;;;9.38;7.80;;;18.20;99.90;;;;;;5097563;28;20529;-87
2022/09/05 06:59:24;;;;;;;;;;;18.40;99.90;;;;;;5058052;27;20048;-86
2022/09/05 07:02:07;;;;;;;7.13;6.43;;;18.50;99.90;;;;;;5116230;27;19934;-88
2022/09/05 07:04:44;;;;;;;8.13;7.00;;;18.50;99.90;;;;;;5098566;27;20108;-87
2022/09/05 07:07:30;;;;;;;7.38;6.50;;;18.60;99.90;;;;;;5096362;27;20239;-87
2022/09/05 07:10:03;;;;;;;7.15;6.45;;;18.70;99.90;;;;;;5099860;27;20048;-87
2022/09/05 07:12:51;;;;;;;8.63;7.20;;;18.80;99.90;;;;;;5115929;27;20043;-81
2022/09/05 07:15:38;;;;;;;7.60;6.90;;;19.00;99.90;;;;;;5084804;28;20046;-81
2022/09/05 07:18:27;;;;;;;8.30;6.97;;;19.10;99.90;;;;;;5110554;27;20043;-87
2022/09/05 07:20:59;;;;;;;7.85;6.60;;;19.20;99.90;;;;;;5113234;27;20054;-87
2022/09/05 07:23:39;;;;;;;8.80;7.30;;;19.30;99.90;;;;;;5100294;27;20055;-87
2022/09/05 07:26:09;;;;;;;7.40;6.68;;;19.50;99.90;;;;;;5099795;27;20070;-88
2022/09/05 07:28:45;;;;;;;7.93;7.13;;;19.70;99.90;;;;;;5080615;27;20145;-88
2022/09/05 07:31:21;;;;;;;7.63;6.82;;;19.80;99.90;;;;;;5123860;27;20100;-86
2022/09/05 07:33:48;;;;;;;9.77;7.13;;;20.00;99.90;;;;;;5110438;27;20043;-81
2022/09/05 07:36:18;;;;;;;8.40;6.28;;;20.20;99.90;;;;;;5097144;27;20042;-81
2022/09/05 07:38:49;;;;;;;7.93;5.85;;;20.40;99.90;;;;;;5116372;27;20046;-82
2022/09/05 07:41:21;;;;;;;9.45;6.78;;;20.60;99.90;;;;;;5097578;27;20523;-87
2022/09/05 07:43:53;;;;;;;7.70;6.30;;;20.70;99.90;;;;;;5109879;27;20039;-86
2022/09/05 07:46:27;;;;;;;8.13;5.82;;;20.90;99.90;;;;;;5115096;27;20136;-86
2022/09/05 07:48:58;;;;;;;8.30;5.80;;;21.10;99.90;;;;;;5091881;27;20490;-88
2022/09/05 07:51:27;;;;;;;7.25;6.35;;;21.30;99.90;;;;;;5096095;27;20045;-81
2022/09/05 07:54:05;;;;;;;7.38;6.68;;;21.50;99.90;;;;;;5113446;27;20048;-83
2022/09/05 07:57:04;;;;;;;6.85;6.20;;;21.60;99.90;;;;;;5114909;27;20043;-87
2022/09/05 07:59:32;;;;;;;;;;;21.70;99.30;;;;;;5082644;28;20501;-89
2022/09/05 08:02:00;;;;;;;7.22;6.47;;;21.80;99.40;;;;;;5112737;27;20021;-86
2022/09/05 08:04:32;;;;;;;7.88;6.18;;;21.90;99.40;;;;;;5101333;27;20529;-86
2022/09/05 08:07:26;;;;;;;7.50;6.80;;;22.00;99.20;;;;;;5119645;27;20127;-84
2022/09/05 08:10:04;;;;;;;7.40;6.28;;;22.10;98.70;;;;;;5090370;27;20055;-88
2022/09/05 08:13:04;;;;;;;7.00;5.10;;;22.20;98.50;;;;;;5109038;27;20051;-87
2022/09/05 08:15:30;;;;;;;7.18;5.60;;;22.30;98.60;;;;;;5059079;28;20044;-87
2022/09/05 08:18:17;;;;;;;7.28;5.30;;;22.50;98.30;;;;;;5080278;27;20042;-87
2022/09/05 08:20:55;;;;;;;6.90;5.95;;;22.60;97.80;;;;;;5101595;27;20039;-87
2022/09/05 08:23:39;;;;;;;6.35;5.40;;;22.80;97.20;;;;;;5101319;27;20493;-82
2022/09/05 08:26:16;;;;;;;7.47;5.53;;;23.00;96.60;;;;;;5104908;27;20126;-82
2022/09/05 08:28:45;;;;;;;7.35;5.70;;;23.10;96.70;;;;;;5082927;27;20048;-82
2022/09/05 08:31:18;;;;;;;7.55;4.50;;;23.10;96.00;;;;;;5097536;27;20039;-81
2022/09/05 08:33:47;;;;;;;7.03;4.82;;;23.20;96.20;;;;;;5093030;27;20489;-81
2022/09/05 08:36:45;;;;;;;8.00;5.35;;;23.40;97.10;;;;;;5089640;27;20058;-82
2022/09/05 08:39:15;;;;;;;8.93;4.80;;;23.60;95.50;;;;;;5104108;27;20244;-81
2022/09/05 08:41:43;;;;;;;;;;;23.80;95.60;;;;;;5093002;27;20124;-81
2022/09/05 08:44:28;;;;;;;5.30;4.10;;;23.90;94.20;;;;;;5114128;27;19919;-82
2022/09/05 08:47:17;;;;;;;9.07;4.93;;;23.90;96.00;;;;;;5117368;27;20079;-86
2022/09/05 08:50:02;;;;;;;7.33;4.87;;;24.10;95.10;;;;;;5090868;27;20027;-86
2022/09/05 08:52:58;;;;;;;4.70;4.00;;;24.30;96.00;;;;;;5099502;27;20040;-85
2022/09/05 08:56:09;;;;;;;5.82;4.03;;;24.40;93.30;;;;;;5096960;27;20142;-85
2022/09/05 08:59:09;;;;;;;5.85;4.68;;;24.60;92.00;;;;;;5100391;27;20435;-88
2022/09/05 09:01:41;;;;;;;5.57;3.80;;;24.80;92.80;;;;;;5095956;28;20052;-86
2022/09/05 09:04:11;;;;;;;5.85;3.67;;;25.10;92.30;;;;;;5119367;27;20097;-86
2022/09/05 09:06:40;;;;;;;7.03;4.00;;;25.20;92.10;;;;;;5098698;27;20061;-86
2022/09/05 09:09:15;;;;;;;6.35;3.65;;;25.40;90.90;;;;;;5101936;27;20043;-85
2022/09/05 09:11:51;;;;;;;7.35;4.25;;;25.60;91.10;;;;;;5105674;27;20390;-86
2022/09/05 09:14:46;;;;;;;5.57;3.50;;;25.80;91.10;;;;;;5097373;27;20045;-86
2022/09/05 09:17:24;;;;;;;7.45;4.20;;;26.00;90.80;;;;;;5092748;28;20085;-85
2022/09/05 09:20:15;;;;;;;4.95;3.80;;;26.30;90.20;;;;;;5100199;28;20135;-88
2022/09/05 09:23:17;;;;;;;4.75;3.88;;;26.40;89.10;;;;;;5098106;27;20450;-86
2022/09/05 09:25:59;;;;;;;4.35;3.47;;;26.60;87.90;;;;;;5096794;27;20074;-86
2022/09/05 09:28:49;;;;;;;4.25;3.33;;;26.80;86.10;;;;;;5096354;28;20290;-85
2022/09/05 09:31:20;;;;;;;4.88;3.75;;;27.00;84.90;;;;;;5110740;27;20494;-86
2022/09/05 09:34:24;;;;;;;5.18;3.92;;;27.10;83.90;;;;;;5097494;28;20054;-85
2022/09/05 09:37:18;;;;;;;8.60;3.67;;;27.20;81.00;;;;;;5063702;28;20051;-84
2022/09/05 09:39:46;;;;;;;6.75;3.40;;;27.20;81.60;;;;;;5110765;27;20035;-84
2022/09/05 09:42:40;;;;;;;4.10;2.78;;;27.30;81.90;;;;;;5109150;27;20126;-89
2022/09/05 09:45:40;;;;;;;5.47;3.30;;;27.30;81.30;;;;;;5096298;27;20039;-85
2022/09/05 09:48:09;;;;;;;4.70;3.30;;;27.40;80.40;;;;;;5108031;27;20493;-84
2022/09/05 09:51:10;;;;;;;8.80;3.20;;;27.50;80.40;;;;;;5097361;27;20068;-87
2022/09/05 09:54:10;;;;;;;5.75;3.85;;;27.60;79.00;;;;;;5098391;27;20522;-82
2022/09/05 09:57:01;;;;;;;5.03;3.60;;;27.80;77.80;;;;;;5114189;27;20049;-84
2022/09/05 10:00:06;;;;;;;5.57;3.17;;;27.90;77.20;;;;;;5104179;27;20054;-85
2022/09/05 10:02:51;;;;;;;5.63;3.10;;;28.00;76.50;;;;;;5113018;27;20497;-84
2022/09/05 10:05:51;;;;;;;4.72;3.45;;;28.10;75.90;;;;;;5093172;27;20035;-85
2022/09/05 10:08:38;;;;;;;3.70;3.30;;;28.10;74.30;;;;;;5098569;27;20047;-84
2022/09/05 10:11:49;;;;;;;6.53;3.25;;;28.10;73.70;;;;;;5097765;27;20134;-86
2022/09/05 10:14:36;;;;;;;6.25;3.10;;;28.20;73.90;;;;;;5054923;28;20079;-84
2022/09/05 10:17:41;;;;;;;4.95;3.22;;;28.30;73.90;;;;;;5097572;27;20852;-85
2022/09/05 10:20:13;;;;;;;5.32;3.08;;;28.50;72.20;;;;;;5083721;27;20561;-83
2022/09/05 10:22:57;;;;;;;5.93;3.25;;;28.50;72.10;;;;;;5102498;27;20596;-82
2022/09/05 10:25:29;;;;;;;5.28;3.10;;;28.50;72.10;;;;;;5117538;27;20062;-82
2022/09/05 10:28:17;;;;;;;4.10;2.88;;;28.50;73.10;;;;;;5120864;27;20477;-82
2022/09/05 10:31:17;;;;;;;6.28;3.40;;;28.40;71.20;;;;;;5105865;27;20088;-82
2022/09/05 10:33:50;;;;;;;5.82;3.65;;;28.50;71.20;;;;;;5139780;27;20493;-82
2022/09/05 10:36:27;;;;;;;4.82;3.17;;;28.50;70.80;;;;;;5108179;27;20043;-82
2022/09/05 10:39:07;;;;;;;6.35;3.33;;;28.50;69.30;;;;;;5100455;27;20035;-83
2022/09/05 10:41:51;;;;;;;7.20;3.25;;;28.60;70.10;;;;;;5100422;27;20047;-83
2022/09/05 10:44:52;;;;;;;5.13;3.40;;;28.60;69.80;;;;;;5115460;27;20039;-83
2022/09/05 10:47:30;;;;;;;6.45;3.03;;;28.80;69.80;;;;;;5104108;27;20532;-82
2022/09/05 10:50:32;;;;;;;6.85;3.35;;;28.80;67.90;;;;;;5101858;27;20170;-83
2022/09/05 10:53:00;;;;;;;5.00;2.90;;;28.90;67.40;;;;;;5103177;27;20076;-82
2022/09/05 10:55:54;;;;;;;3.75;2.75;;;29.00;67.00;;;;;;5113241;27;20561;-81
2022/09/05 10:58:42;;;;;;;3.40;2.60;;;29.10;67.00;;;;;;5104586;27;20060;-82
2022/09/05 11:01:38;;;;;;;4.30;2.80;;;29.20;66.70;;;;;;5099750;27;20039;-82
2022/09/05 11:04:38;;;;;;;5.05;2.95;;;29.40;66.40;;;;;;5112603;27;20035;-82
2022/09/05 11:07:20;;;;;;;4.57;2.40;;;29.40;65.50;;;;;;5106890;27;20043;-83
2022/09/05 11:10:13;;;;;;;3.95;2.58;;;29.50;64.30;;;;;;5125644;27;20110;-85
2022/09/05 11:12:53;;;;;;;4.00;2.97;;;29.40;62.60;;;;;;5109073;27;20554;-86
2022/09/05 11:15:47;;;;;;;5.97;3.38;;;29.30;64.10;;;;;;5103541;27;20902;-87
2022/09/05 11:18:31;;;;;;;3.40;2.72;;;29.20;63.70;;;;;;5097374;27;20039;-82
2022/09/05 11:21:11;;;;;;;6.22;3.20;;;29.10;65.80;;;;;;5123324;27;20081;-82
2022/09/05 11:23:50;;;;;;;4.57;2.55;;;29.10;64.80;;;;;;5101234;27;20050;-82
2022/09/05 11:26:44;;;;;;;3.80;2.50;;;29.20;64.30;;;;;;5107679;27;20160;-84
2022/09/05 11:29:14;;;;;;;5.90;2.90;;;29.30;62.90;;;;;;5099396;27;20039;-82
2022/09/05 11:32:11;;;;;;;6.82;3.08;;;29.50;63.60;;;;;;5103284;27;20042;-88
2022/09/05 11:34:59;;;;;;;4.15;2.63;;;29.60;62.90;;;;;;5110571;27;20479;-84
2022/09/05 11:37:45;;;;;;;8.10;3.28;;;29.80;61.30;;;;;;5110678;27;20906;-83
2022/09/05 11:40:30;;;;;;;7.15;2.63;;;29.90;62.10;;;;;;5116823;27;20322;-85
2022/09/05 11:43:24;;;;;;;3.33;2.13;;;30.00;61.50;;;;;;5112151;27;20494;-82
2022/09/05 11:46:01;;;;;;;4.35;2.30;;;30.10;59.60;;;;;;5117983;27;20086;-83
2022/09/05 11:48:36;;;;;;;6.40;2.50;;;30.20;58.70;;;;;;5110998;27;20049;-85
2022/09/05 11:51:39;;;;;;;5.20;2.70;;;30.20;57.10;;;;;;5106538;27;20129;-83
2022/09/05 11:54:11;;;;;;;3.05;2.28;;;30.00;57.50;;;;;;5128783;27;20117;-83
2022/09/05 11:56:57;;;;;;;4.25;2.63;;;29.80;58.50;;;;;;5106944;27;20083;-83
2022/09/05 11:59:59;;;;;;;6.05;2.30;;;29.60;58.90;;;;;;5115259;27;20047;-83
2022/09/05 12:02:52;;;;;;;3.50;2.60;;;29.50;59.50;;;;;;5122890;27;20047;-83
2022/09/05 12:05:53;;;;;;;5.07;2.45;;;29.30;59.80;;;;;;5109725;27;20564;-82
2022/09/05 12:08:34;;;;;;;4.00;2.80;;;29.30;59.80;;;;;;5120732;27;20031;-83
2022/09/05 12:11:24;;;;;;;3.90;2.17;;;29.40;58.50;;;;;;5107156;27;20062;-81
2022/09/05 12:14:17;;;;;;;4.88;2.13;;;29.50;57.30;;;;;;5101984;27;20047;-82
2022/09/05 12:16:48;;;;;;;3.00;2.00;;;29.70;56.70;;;;;;5105586;27;20402;-84
2022/09/05 12:19:50;;;;;;;3.83;2.05;;;29.80;56.20;;;;;;5099264;27;20737;-84
2022/09/05 12:22:30;;;;;;;3.85;2.00;;;29.80;55.60;;;;;;5116387;27;20050;-84
2022/09/05 12:25:23;;;;;;;3.60;1.70;;;30.00;54.20;;;;;;5110265;27;20338;-83
2022/09/05 12:28:05;;;;;;;3.45;1.88;;;30.00;55.60;;;;;;5114213;27;20054;-83
2022/09/05 12:30:40;;;;;;;3.63;1.90;;;30.00;54.40;;;;;;5122673;27;20050;-83
2022/09/05 12:33:09;;;;;;;3.55;1.90;;;30.10;55.40;;;;;;5092140;27;20429;-84
2022/09/05 12:35:42;;;;;;;4.43;2.20;;;30.20;54.60;;;;;;5103352;27;20055;-82
2022/09/05 12:38:24;;;;;;;5.85;2.20;;;30.20;54.60;;;;;;5109135;27;20690;-83
2022/09/05 12:40:58;;;;;;;4.45;2.10;;;30.20;54.20;;;;;;5117961;27;20188;-83
2022/09/05 12:43:27;;;;;;;2.47;1.83;;;30.10;54.50;;;;;;5098955;27;20329;-83
2022/09/05 12:46:21;;;;;;;3.80;2.20;;;30.00;55.30;;;;;;5105375;27;20059;-86
2022/09/05 12:49:09;;;;;;;2.60;1.80;;;29.80;55.40;;;;;;5120339;27;20107;-83
2022/09/05 12:51:53;;;;;;;4.05;2.10;;;29.80;54.90;;;;;;5118667;27;20405;-83
2022/09/05 12:54:32;;;;;;;6.80;2.33;;;29.90;54.30;;;;;;5106078;27;20050;-82
2022/09/05 12:57:12;;;;;;;3.65;2.15;;;30.00;55.50;;;;;;5100750;27;20047;-82
2022/09/05 12:59:43;;;;;;;3.25;2.10;;;30.00;55.10;;;;;;5120034;27;20554;-84
2022/09/05 13:02:30;;;;;;;3.25;1.83;;;30.00;55.10;;;;;;5120794;27;20078;-82
2022/09/05 13:05:02;;;;;;;3.10;2.03;;;29.90;54.20;;;;;;5105847;27;20695;-83
2022/09/05 13:07:41;;;;;;;3.65;2.10;;;29.70;55.60;;;;;;5096279;27;20344;-82
2022/09/05 13:10:15;;;;;;;;;;;29.70;55.90;;;;;;5097764;27;20532;-84
2022/09/05 13:12:49;;;;;;;4.40;2.47;;;29.60;56.70;;;;;;5120736;27;20305;-85
2022/09/05 13:15:25;;;;;;;5.43;2.50;;;29.70;56.40;;;;;;5117943;27;20701;-84
2022/09/05 13:18:12;;;;;;;6.18;2.38;;;29.80;55.70;;;;;;5115474;27;20544;-83
2022/09/05 13:20:57;;;;;;;4.55;2.10;;;29.70;55.00;;;;;;5117889;27;20070;-84
2022/09/05 13:23:46;;;;;;;4.28;2.30;;;29.70;55.00;;;;;;5102535;27;20045;-84
2022/09/05 13:26:31;;;;;;;4.07;2.50;;;29.60;54.60;;;;;;5106722;27;20397;-83
2022/09/05 13:29:01;;;;;;;2.33;2.13;;;29.60;55.90;;;;;;5099303;27;20458;-83
2022/09/05 13:31:39;;;;;;;5.10;2.22;;;29.60;56.10;;;;;;5106918;27;20122;-83
2022/09/05 13:34:20;;;;;;;2.83;2.10;;;29.60;55.80;;;;;;5093238;27;20567;-83
2022/09/05 13:36:55;;;;;;;5.40;2.25;;;29.60;55.30;;;;;;5107990;27;20113;-83
2022/09/05 13:39:26;;;;;;;4.15;2.40;;;29.70;55.30;;;;;;5120205;27;20058;-82
2022/09/05 13:42:02;;;;;;;3.15;2.20;;;29.60;55.30;;;;;;5105946;27;20078;-83
2022/09/05 13:44:34;;;;;;;3.17;2.00;;;29.60;55.50;;;;;;5113459;27;20043;-82
2022/09/05 13:47:21;;;;;;;3.92;2.45;;;29.70;55.90;;;;;;5116104;27;20437;-84
2022/09/05 13:50:16;;;;;;;5.13;2.17;;;29.80;55.80;;;;;;5102968;27;20497;-83
2022/09/05 13:53:25;;;;;;;3.60;2.28;;;29.80;55.20;;;;;;5116651;27;20098;-83
2022/09/05 13:55:57;;;;;;;3.10;2.20;;;29.90;54.50;;;;;;5068748;27;20121;-83
2022/09/05 13:58:37;;;;;;;4.28;2.20;;;29.90;54.60;;;;;;5094419;27;20452;-83
2022/09/05 14:01:13;;;;;;;5.13;2.38;;;30.10;54.60;;;;;;5106288;27;20047;-82
2022/09/05 14:04:04;;;;;;;2.78;2.33;;;30.10;54.00;;;;;;5116233;27;20738;-84
2022/09/05 14:06:47;;;;;;;3.85;2.30;;;30.00;54.60;;;;;;5109641;27;20319;-84
2022/09/05 14:09:15;;;;;;;2.75;2.28;;;30.10;54.50;;;;;;5096120;27;20045;-82
2022/09/05 14:11:48;;;;;;;2.83;2.30;;;30.10;53.60;;;;;;5097278;27;20148;-82
2022/09/05 14:14:33;;;;;;;3.20;2.22;;;30.00;53.50;;;;;;5106345;27;20054;-82
2022/09/05 14:17:29;;;;;;;2.42;2.15;;;30.00;54.10;;;;;;5120556;27;20547;-82